sensor_id;sensor_type;location;lat;lon;timestamp;P1;durP1;ratioP1;P2;durP2;ratioP2
6463;SDS011;3265;42.694;23.282;2023-08-31T00:01:22;9.63;;;4.93;;
6463;SDS011;3265;42.694;23.282;2023-08-31T00:03:48;7.07;;;3.80;;
6463;SDS011;3265;42.694;23.282;2023-08-31T00:06:18;10.05;;;4.32;;
6463;SDS011;3265;42.694;23.282;2023-08-31T00:08:48;9.70;;;5.22;;
6463;SDS011;3265;42.694;23.282;2023-08-31T00:11:15;20.70;;;6.28;;
6463;SDS011;3265;42.694;23.282;2023-08-31T00:13:42;6.75;;;3.85;;
6463;SDS011;3265;42.694;23.282;2023-08-31T00:16:08;9.20;;;3.83;;
6463;SDS011;3265;42.694;23.282;2023-08-31T00:18:37;5.15;;;3.65;;
6463;SDS011;3265;42.694;23.282;2023-08-31T00:21:04;12.13;;;4.75;;
6463;SDS011;3265;42.694;23.282;2023-08-31T00:23:31;6.88;;;4.07;;
6463;SDS011;3265;42.694;23.282;2023-08-31T00:26:00;11.07;;;4.57;;
6463;SDS011;3265;42.694;23.282;2023-08-31T00:28:26;8.00;;;3.85;;
6463;SDS011;3265;42.694;23.282;2023-08-31T00:30:53;7.93;;;4.05;;
6463;SDS011;3265;42.694;23.282;2023-08-31T00:33:20;6.97;;;3.50;;
6463;SDS011;3265;42.694;23.282;2023-08-31T00:35:47;5.07;;;3.17;;
6463;SDS011;3265;42.694;23.282;2023-08-31T00:38:14;6.60;;;3.63;;
6463;SDS011;3265;42.694;23.282;2023-08-31T00:40:42;8.93;;;3.40;;
6463;SDS011;3265;42.694;23.282;2023-08-31T00:43:12;7.13;;;3.03;;
6463;SDS011;3265;42.694;23.282;2023-08-31T00:45:41;5.57;;;3.10;;
6463;SDS011;3265;42.694;23.282;2023-08-31T00:48:09;6.75;;;2.83;;
6463;SDS011;3265;42.694;23.282;2023-08-31T00:50:37;6.15;;;2.78;;
6463;SDS011;3265;42.694;23.282;2023-08-31T00:53:04;4.90;;;2.65;;
6463;SDS011;3265;42.694;23.282;2023-08-31T00:55:31;7.75;;;2.85;;
6463;SDS011;3265;42.694;23.282;2023-08-31T00:57:58;12.90;;;2.97;;
6463;SDS011;3265;42.694;23.282;2023-08-31T01:00:29;7.60;;;2.80;;
6463;SDS011;3265;42.694;23.282;2023-08-31T01:03:01;5.97;;;3.05;;
6463;SDS011;3265;42.694;23.282;2023-08-31T01:05:35;6.38;;;2.60;;
6463;SDS011;3265;42.694;23.282;2023-08-31T01:08:12;5.53;;;2.80;;
6463;SDS011;3265;42.694;23.282;2023-08-31T01:10:51;4.78;;;2.95;;
6463;SDS011;3265;42.694;23.282;2023-08-31T01:13:25;5.13;;;2.83;;
6463;SDS011;3265;42.694;23.282;2023-08-31T01:15:58;4.88;;;2.58;;
6463;SDS011;3265;42.694;23.282;2023-08-31T01:18:29;6.10;;;2.92;;
6463;SDS011;3265;42.694;23.282;2023-08-31T01:21:00;5.68;;;2.53;;
6463;SDS011;3265;42.694;23.282;2023-08-31T01:23:42;4.82;;;3.03;;
6463;SDS011;3265;42.694;23.282;2023-08-31T01:26:16;5.70;;;2.80;;
6463;SDS011;3265;42.694;23.282;2023-08-31T01:28:43;4.75;;;2.50;;
6463;SDS011;3265;42.694;23.282;2023-08-31T01:31:11;6.18;;;2.80;;
6463;SDS011;3265;42.694;23.282;2023-08-31T01:33:38;6.10;;;2.83;;
6463;SDS011;3265;42.694;23.282;2023-08-31T01:36:06;14.50;;;3.42;;
6463;SDS011;3265;42.694;23.282;2023-08-31T01:38:39;6.80;;;3.20;;
6463;SDS011;3265;42.694;23.282;2023-08-31T01:41:14;5.20;;;3.08;;
6463;SDS011;3265;42.694;23.282;2023-08-31T01:43:45;9.20;;;3.25;;
6463;SDS011;3265;42.694;23.282;2023-08-31T01:46:14;10.25;;;3.00;;
6463;SDS011;3265;42.694;23.282;2023-08-31T01:48:42;5.72;;;3.05;;
6463;SDS011;3265;42.694;23.282;2023-08-31T01:51:09;8.35;;;3.13;;
6463;SDS011;3265;42.694;23.282;2023-08-31T01:53:36;5.22;;;2.95;;
6463;SDS011;3265;42.694;23.282;2023-08-31T01:56:05;6.47;;;3.13;;
6463;SDS011;3265;42.694;23.282;2023-08-31T01:58:32;6.63;;;2.63;;
6463;SDS011;3265;42.694;23.282;2023-08-31T02:00:59;6.20;;;2.85;;
6463;SDS011;3265;42.694;23.282;2023-08-31T02:03:25;6.30;;;2.70;;
6463;SDS011;3265;42.694;23.282;2023-08-31T02:05:52;6.15;;;2.40;;
6463;SDS011;3265;42.694;23.282;2023-08-31T02:08:19;6.38;;;2.38;;
6463;SDS011;3265;42.694;23.282;2023-08-31T02:10:46;5.50;;;2.72;;
6463;SDS011;3265;42.694;23.282;2023-08-31T02:13:15;7.35;;;3.10;;
6463;SDS011;3265;42.694;23.282;2023-08-31T02:15:42;5.82;;;2.70;;
6463;SDS011;3265;42.694;23.282;2023-08-31T02:18:08;7.30;;;3.10;;
6463;SDS011;3265;42.694;23.282;2023-08-31T02:20:35;5.50;;;2.80;;
6463;SDS011;3265;42.694;23.282;2023-08-31T02:23:02;5.65;;;3.05;;
6463;SDS011;3265;42.694;23.282;2023-08-31T02:25:29;8.27;;;3.25;;
6463;SDS011;3265;42.694;23.282;2023-08-31T02:27:56;6.05;;;3.22;;
6463;SDS011;3265;42.694;23.282;2023-08-31T02:30:25;9.30;;;3.08;;
6463;SDS011;3265;42.694;23.282;2023-08-31T02:32:52;9.10;;;3.15;;
6463;SDS011;3265;42.694;23.282;2023-08-31T02:35:19;5.88;;;2.67;;
6463;SDS011;3265;42.694;23.282;2023-08-31T02:37:46;4.53;;;2.70;;
6463;SDS011;3265;42.694;23.282;2023-08-31T02:40:13;8.07;;;2.95;;
6463;SDS011;3265;42.694;23.282;2023-08-31T02:42:41;4.85;;;2.90;;
6463;SDS011;3265;42.694;23.282;2023-08-31T02:45:08;7.75;;;3.80;;
6463;SDS011;3265;42.694;23.282;2023-08-31T02:47:37;4.10;;;2.83;;
6463;SDS011;3265;42.694;23.282;2023-08-31T02:50:07;6.25;;;3.05;;
6463;SDS011;3265;42.694;23.282;2023-08-31T02:52:34;6.07;;;3.30;;
6463;SDS011;3265;42.694;23.282;2023-08-31T02:55:02;7.68;;;3.30;;
6463;SDS011;3265;42.694;23.282;2023-08-31T02:57:29;6.50;;;3.10;;
6463;SDS011;3265;42.694;23.282;2023-08-31T02:59:56;13.88;;;3.33;;
6463;SDS011;3265;42.694;23.282;2023-08-31T03:02:23;5.80;;;3.20;;
6463;SDS011;3265;42.694;23.282;2023-08-31T03:04:52;8.20;;;3.80;;
6463;SDS011;3265;42.694;23.282;2023-08-31T03:07:19;8.55;;;3.95;;
6463;SDS011;3265;42.694;23.282;2023-08-31T03:09:48;8.20;;;3.80;;
6463;SDS011;3265;42.694;23.282;2023-08-31T03:12:16;7.40;;;3.40;;
6463;SDS011;3265;42.694;23.282;2023-08-31T03:14:42;10.85;;;3.17;;
6463;SDS011;3265;42.694;23.282;2023-08-31T03:17:10;6.97;;;3.90;;
6463;SDS011;3265;42.694;23.282;2023-08-31T03:19:37;6.28;;;2.85;;
6463;SDS011;3265;42.694;23.282;2023-08-31T03:22:05;7.57;;;3.00;;
6463;SDS011;3265;42.694;23.282;2023-08-31T03:27:54;6.57;;;3.28;;
6463;SDS011;3265;42.694;23.282;2023-08-31T03:30:21;5.05;;;3.08;;
6463;SDS011;3265;42.694;23.282;2023-08-31T03:32:48;6.90;;;3.05;;
6463;SDS011;3265;42.694;23.282;2023-08-31T03:35:16;8.45;;;3.30;;
6463;SDS011;3265;42.694;23.282;2023-08-31T03:37:44;10.98;;;3.50;;
6463;SDS011;3265;42.694;23.282;2023-08-31T03:40:13;8.57;;;3.08;;
6463;SDS011;3265;42.694;23.282;2023-08-31T03:42:40;7.13;;;3.22;;
6463;SDS011;3265;42.694;23.282;2023-08-31T03:45:07;9.20;;;3.92;;
6463;SDS011;3265;42.694;23.282;2023-08-31T03:47:34;8.07;;;3.42;;
6463;SDS011;3265;42.694;23.282;2023-08-31T03:50:01;9.05;;;3.20;;
6463;SDS011;3265;42.694;23.282;2023-08-31T03:52:29;5.35;;;3.30;;
6463;SDS011;3265;42.694;23.282;2023-08-31T03:54:57;10.27;;;3.67;;
6463;SDS011;3265;42.694;23.282;2023-08-31T03:57:24;9.65;;;4.32;;
6463;SDS011;3265;42.694;23.282;2023-08-31T03:59:51;13.27;;;3.83;;
6463;SDS011;3265;42.694;23.282;2023-08-31T04:02:18;8.27;;;3.60;;
6463;SDS011;3265;42.694;23.282;2023-08-31T04:04:45;14.20;;;5.00;;
6463;SDS011;3265;42.694;23.282;2023-08-31T04:07:12;9.65;;;5.00;;
6463;SDS011;3265;42.694;23.282;2023-08-31T04:09:39;10.77;;;5.28;;
6463;SDS011;3265;42.694;23.282;2023-08-31T04:12:08;16.33;;;8.57;;
6463;SDS011;3265;42.694;23.282;2023-08-31T04:14:35;16.88;;;7.68;;
6463;SDS011;3265;42.694;23.282;2023-08-31T04:17:02;25.30;;;8.38;;
6463;SDS011;3265;42.694;23.282;2023-08-31T04:19:30;21.38;;;8.05;;
6463;SDS011;3265;42.694;23.282;2023-08-31T04:21:57;21.02;;;7.97;;
6463;SDS011;3265;42.694;23.282;2023-08-31T04:24:24;21.45;;;9.80;;
6463;SDS011;3265;42.694;23.282;2023-08-31T04:26:53;10.60;;;5.80;;
6463;SDS011;3265;42.694;23.282;2023-08-31T04:29:22;13.40;;;6.40;;
6463;SDS011;3265;42.694;23.282;2023-08-31T04:31:49;13.52;;;6.03;;
6463;SDS011;3265;42.694;23.282;2023-08-31T04:34:16;14.35;;;6.38;;
6463;SDS011;3265;42.694;23.282;2023-08-31T04:36:43;16.83;;;6.55;;
6463;SDS011;3265;42.694;23.282;2023-08-31T04:39:10;19.88;;;6.90;;
6463;SDS011;3265;42.694;23.282;2023-08-31T04:41:37;17.63;;;7.32;;
6463;SDS011;3265;42.694;23.282;2023-08-31T04:44:04;11.73;;;7.22;;
6463;SDS011;3265;42.694;23.282;2023-08-31T04:46:32;18.88;;;7.43;;
6463;SDS011;3265;42.694;23.282;2023-08-31T04:48:59;15.32;;;6.68;;
6463;SDS011;3265;42.694;23.282;2023-08-31T04:51:32;17.80;;;7.28;;
6463;SDS011;3265;42.694;23.282;2023-08-31T04:54:02;13.98;;;6.78;;
6463;SDS011;3265;42.694;23.282;2023-08-31T04:56:30;13.52;;;6.68;;
6463;SDS011;3265;42.694;23.282;2023-08-31T04:59:01;15.40;;;6.68;;
6463;SDS011;3265;42.694;23.282;2023-08-31T05:01:28;11.90;;;6.45;;
6463;SDS011;3265;42.694;23.282;2023-08-31T05:03:56;20.67;;;6.35;;
6463;SDS011;3265;42.694;23.282;2023-08-31T05:06:28;13.52;;;6.20;;
6463;SDS011;3265;42.694;23.282;2023-08-31T05:08:55;14.15;;;6.15;;
6463;SDS011;3265;42.694;23.282;2023-08-31T05:11:23;12.65;;;6.00;;
6463;SDS011;3265;42.694;23.282;2023-08-31T05:13:50;16.70;;;6.25;;
6463;SDS011;3265;42.694;23.282;2023-08-31T05:16:17;21.65;;;5.90;;
6463;SDS011;3265;42.694;23.282;2023-08-31T05:18:43;13.77;;;5.35;;
6463;SDS011;3265;42.694;23.282;2023-08-31T05:21:14;18.25;;;5.80;;
6463;SDS011;3265;42.694;23.282;2023-08-31T05:23:41;15.05;;;6.00;;
6463;SDS011;3265;42.694;23.282;2023-08-31T05:26:08;17.67;;;5.30;;
6463;SDS011;3265;42.694;23.282;2023-08-31T05:28:35;18.52;;;5.47;;
6463;SDS011;3265;42.694;23.282;2023-08-31T05:31:02;10.02;;;4.53;;
6463;SDS011;3265;42.694;23.282;2023-08-31T05:33:30;12.30;;;4.38;;
6463;SDS011;3265;42.694;23.282;2023-08-31T05:36:00;10.05;;;3.60;;
6463;SDS011;3265;42.694;23.282;2023-08-31T05:38:30;10.23;;;3.88;;
6463;SDS011;3265;42.694;23.282;2023-08-31T05:41:03;12.82;;;4.30;;
6463;SDS011;3265;42.694;23.282;2023-08-31T05:43:32;12.00;;;4.15;;
6463;SDS011;3265;42.694;23.282;2023-08-31T05:45:59;10.85;;;4.50;;
6463;SDS011;3265;42.694;23.282;2023-08-31T05:48:26;17.50;;;4.28;;
6463;SDS011;3265;42.694;23.282;2023-08-31T05:50:53;7.78;;;3.78;;
6463;SDS011;3265;42.694;23.282;2023-08-31T05:53:20;16.67;;;3.60;;
6463;SDS011;3265;42.694;23.282;2023-08-31T05:55:48;7.45;;;2.78;;
6463;SDS011;3265;42.694;23.282;2023-08-31T05:58:15;5.72;;;2.85;;
6463;SDS011;3265;42.694;23.282;2023-08-31T06:00:42;7.95;;;3.30;;
6463;SDS011;3265;42.694;23.282;2023-08-31T06:03:09;4.90;;;3.00;;
6463;SDS011;3265;42.694;23.282;2023-08-31T06:05:36;4.80;;;3.08;;
6463;SDS011;3265;42.694;23.282;2023-08-31T06:08:04;11.02;;;3.40;;
6463;SDS011;3265;42.694;23.282;2023-08-31T06:10:31;6.07;;;3.40;;
6463;SDS011;3265;42.694;23.282;2023-08-31T06:12:59;6.82;;;3.20;;
6463;SDS011;3265;42.694;23.282;2023-08-31T06:15:26;10.25;;;3.42;;
6463;SDS011;3265;42.694;23.282;2023-08-31T06:17:53;8.15;;;2.95;;
6463;SDS011;3265;42.694;23.282;2023-08-31T06:20:20;6.75;;;3.38;;
6463;SDS011;3265;42.694;23.282;2023-08-31T06:22:47;10.90;;;3.30;;
6463;SDS011;3265;42.694;23.282;2023-08-31T06:25:14;8.00;;;2.92;;
6463;SDS011;3265;42.694;23.282;2023-08-31T06:27:43;8.73;;;3.00;;
6463;SDS011;3265;42.694;23.282;2023-08-31T06:30:12;7.15;;;3.10;;
6463;SDS011;3265;42.694;23.282;2023-08-31T06:32:42;11.30;;;3.80;;
6463;SDS011;3265;42.694;23.282;2023-08-31T06:35:09;9.75;;;3.88;;
6463;SDS011;3265;42.694;23.282;2023-08-31T06:37:37;6.63;;;3.75;;
6463;SDS011;3265;42.694;23.282;2023-08-31T06:40:04;10.98;;;4.20;;
6463;SDS011;3265;42.694;23.282;2023-08-31T06:42:33;13.52;;;4.60;;
6463;SDS011;3265;42.694;23.282;2023-08-31T06:45:00;11.90;;;5.35;;
6463;SDS011;3265;42.694;23.282;2023-08-31T06:47:28;13.80;;;5.18;;
6463;SDS011;3265;42.694;23.282;2023-08-31T06:49:55;13.40;;;4.82;;
6463;SDS011;3265;42.694;23.282;2023-08-31T06:52:22;14.98;;;5.18;;
6463;SDS011;3265;42.694;23.282;2023-08-31T06:54:49;9.60;;;4.45;;
6463;SDS011;3265;42.694;23.282;2023-08-31T06:57:22;7.93;;;4.10;;
6463;SDS011;3265;42.694;23.282;2023-08-31T06:59:51;14.10;;;5.00;;
6463;SDS011;3265;42.694;23.282;2023-08-31T07:02:18;12.55;;;4.30;;
6463;SDS011;3265;42.694;23.282;2023-08-31T07:04:48;9.15;;;4.10;;
6463;SDS011;3265;42.694;23.282;2023-08-31T07:07:17;13.13;;;4.22;;
6463;SDS011;3265;42.694;23.282;2023-08-31T07:09:45;11.80;;;4.60;;
6463;SDS011;3265;42.694;23.282;2023-08-31T07:12:13;12.63;;;4.03;;
6463;SDS011;3265;42.694;23.282;2023-08-31T07:14:42;12.27;;;3.60;;
6463;SDS011;3265;42.694;23.282;2023-08-31T07:17:09;12.85;;;4.05;;
6463;SDS011;3265;42.694;23.282;2023-08-31T07:19:36;9.60;;;3.50;;
6463;SDS011;3265;42.694;23.282;2023-08-31T07:22:04;10.02;;;3.58;;
6463;SDS011;3265;42.694;23.282;2023-08-31T07:24:31;4.53;;;2.85;;
6463;SDS011;3265;42.694;23.282;2023-08-31T07:27:00;7.68;;;3.00;;
6463;SDS011;3265;42.694;23.282;2023-08-31T07:29:29;6.95;;;2.85;;
6463;SDS011;3265;42.694;23.282;2023-08-31T07:31:57;9.93;;;2.85;;
6463;SDS011;3265;42.694;23.282;2023-08-31T07:34:24;4.13;;;2.65;;
6463;SDS011;3265;42.694;23.282;2023-08-31T07:36:59;4.40;;;2.85;;
6463;SDS011;3265;42.694;23.282;2023-08-31T07:39:43;6.50;;;2.67;;
6463;SDS011;3265;42.694;23.282;2023-08-31T07:42:11;8.57;;;2.55;;
6463;SDS011;3265;42.694;23.282;2023-08-31T07:44:59;9.00;;;2.55;;
6463;SDS011;3265;42.694;23.282;2023-08-31T07:47:35;5.20;;;2.60;;
6463;SDS011;3265;42.694;23.282;2023-08-31T07:50:33;7.88;;;3.30;;
6463;SDS011;3265;42.694;23.282;2023-08-31T07:53:02;6.57;;;2.67;;
6463;SDS011;3265;42.694;23.282;2023-08-31T07:55:53;4.32;;;2.28;;
6463;SDS011;3265;42.694;23.282;2023-08-31T07:58:27;5.90;;;2.60;;
6463;SDS011;3265;42.694;23.282;2023-08-31T08:01:04;6.68;;;2.78;;
6463;SDS011;3265;42.694;23.282;2023-08-31T08:03:31;6.40;;;2.85;;
6463;SDS011;3265;42.694;23.282;2023-08-31T08:05:58;5.90;;;2.40;;
6463;SDS011;3265;42.694;23.282;2023-08-31T08:08:42;4.78;;;2.40;;
6463;SDS011;3265;42.694;23.282;2023-08-31T08:11:27;6.18;;;3.22;;
6463;SDS011;3265;42.694;23.282;2023-08-31T08:13:56;8.65;;;3.83;;
6463;SDS011;3265;42.694;23.282;2023-08-31T08:16:23;8.38;;;4.00;;
6463;SDS011;3265;42.694;23.282;2023-08-31T08:18:56;8.43;;;3.50;;
6463;SDS011;3265;42.694;23.282;2023-08-31T08:21:25;7.47;;;3.50;;
6463;SDS011;3265;42.694;23.282;2023-08-31T08:27:45;5.53;;;3.35;;
6463;SDS011;3265;42.694;23.282;2023-08-31T08:30:13;7.57;;;3.80;;
6463;SDS011;3265;42.694;23.282;2023-08-31T08:32:40;9.25;;;3.70;;
6463;SDS011;3265;42.694;23.282;2023-08-31T08:35:08;8.30;;;4.35;;
6463;SDS011;3265;42.694;23.282;2023-08-31T08:37:35;6.28;;;3.97;;
6463;SDS011;3265;42.694;23.282;2023-08-31T08:40:02;8.07;;;4.28;;
6463;SDS011;3265;42.694;23.282;2023-08-31T08:42:30;8.27;;;4.63;;
6463;SDS011;3265;42.694;23.282;2023-08-31T08:45:03;8.45;;;4.63;;
6463;SDS011;3265;42.694;23.282;2023-08-31T08:47:32;7.57;;;3.80;;
6463;SDS011;3265;42.694;23.282;2023-08-31T08:49:59;7.97;;;4.40;;
6463;SDS011;3265;42.694;23.282;2023-08-31T08:52:28;8.30;;;4.30;;
6463;SDS011;3265;42.694;23.282;2023-08-31T08:54:55;6.93;;;4.25;;
6463;SDS011;3265;42.694;23.282;2023-08-31T08:57:23;8.10;;;4.50;;
6463;SDS011;3265;42.694;23.282;2023-08-31T08:59:50;8.73;;;4.35;;
6463;SDS011;3265;42.694;23.282;2023-08-31T09:02:18;10.05;;;4.72;;
6463;SDS011;3265;42.694;23.282;2023-08-31T09:04:45;8.80;;;4.20;;
6463;SDS011;3265;42.694;23.282;2023-08-31T09:07:12;7.57;;;4.55;;
6463;SDS011;3265;42.694;23.282;2023-08-31T09:09:47;8.73;;;4.38;;
6463;SDS011;3265;42.694;23.282;2023-08-31T09:12:16;7.13;;;4.38;;
6463;SDS011;3265;42.694;23.282;2023-08-31T09:14:43;7.75;;;4.32;;
6463;SDS011;3265;42.694;23.282;2023-08-31T09:17:10;7.15;;;4.07;;
6463;SDS011;3265;42.694;23.282;2023-08-31T09:19:38;6.88;;;4.47;;
6463;SDS011;3265;42.694;23.282;2023-08-31T09:22:05;10.02;;;4.20;;
6463;SDS011;3265;42.694;23.282;2023-08-31T09:24:39;9.32;;;4.80;;
6463;SDS011;3265;42.694;23.282;2023-08-31T09:27:07;9.45;;;4.47;;
6463;SDS011;3265;42.694;23.282;2023-08-31T09:29:37;5.45;;;4.10;;
6463;SDS011;3265;42.694;23.282;2023-08-31T09:32:05;6.15;;;4.18;;
6463;SDS011;3265;42.694;23.282;2023-08-31T09:34:32;9.15;;;4.32;;
6463;SDS011;3265;42.694;23.282;2023-08-31T09:37:05;10.10;;;4.45;;
6463;SDS011;3265;42.694;23.282;2023-08-31T09:39:35;7.60;;;4.60;;
6463;SDS011;3265;42.694;23.282;2023-08-31T09:42:02;9.95;;;4.70;;
6463;SDS011;3265;42.694;23.282;2023-08-31T09:44:30;7.88;;;4.60;;
6463;SDS011;3265;42.694;23.282;2023-08-31T09:46:57;7.90;;;4.88;;
6463;SDS011;3265;42.694;23.282;2023-08-31T09:49:25;6.32;;;4.40;;
6463;SDS011;3265;42.694;23.282;2023-08-31T09:51:52;6.88;;;4.22;;
6463;SDS011;3265;42.694;23.282;2023-08-31T09:54:22;7.50;;;4.53;;
6463;SDS011;3265;42.694;23.282;2023-08-31T09:56:54;7.20;;;4.38;;
6463;SDS011;3265;42.694;23.282;2023-08-31T09:59:24;6.25;;;4.40;;
6463;SDS011;3265;42.694;23.282;2023-08-31T10:01:51;6.97;;;4.43;;
6463;SDS011;3265;42.694;23.282;2023-08-31T10:04:18;8.07;;;4.95;;
6463;SDS011;3265;42.694;23.282;2023-08-31T10:06:45;6.65;;;4.45;;
6463;SDS011;3265;42.694;23.282;2023-08-31T10:09:12;5.60;;;4.13;;
6463;SDS011;3265;42.694;23.282;2023-08-31T10:11:41;7.85;;;4.90;;
6463;SDS011;3265;42.694;23.282;2023-08-31T10:14:10;6.05;;;4.53;;
6463;SDS011;3265;42.694;23.282;2023-08-31T10:16:39;6.47;;;4.85;;
6463;SDS011;3265;42.694;23.282;2023-08-31T10:19:07;8.45;;;5.43;;
6463;SDS011;3265;42.694;23.282;2023-08-31T10:21:34;6.00;;;4.72;;
6463;SDS011;3265;42.694;23.282;2023-08-31T10:24:02;7.13;;;4.50;;
6463;SDS011;3265;42.694;23.282;2023-08-31T10:26:30;5.78;;;4.40;;
6463;SDS011;3265;42.694;23.282;2023-08-31T10:28:59;6.13;;;4.38;;
6463;SDS011;3265;42.694;23.282;2023-08-31T10:31:28;7.03;;;4.60;;
6463;SDS011;3265;42.694;23.282;2023-08-31T10:33:56;8.55;;;4.82;;
6463;SDS011;3265;42.694;23.282;2023-08-31T10:36:34;7.88;;;4.82;;
6463;SDS011;3265;42.694;23.282;2023-08-31T10:39:06;8.45;;;4.28;;
6463;SDS011;3265;42.694;23.282;2023-08-31T10:41:37;5.60;;;4.10;;
6463;SDS011;3265;42.694;23.282;2023-08-31T10:44:18;7.30;;;4.70;;
6463;SDS011;3265;42.694;23.282;2023-08-31T10:46:46;7.15;;;4.43;;
6463;SDS011;3265;42.694;23.282;2023-08-31T10:49:15;8.93;;;4.28;;
6463;SDS011;3265;42.694;23.282;2023-08-31T10:51:43;5.93;;;4.18;;
6463;SDS011;3265;42.694;23.282;2023-08-31T10:54:21;11.95;;;4.28;;
6463;SDS011;3265;42.694;23.282;2023-08-31T10:57:03;6.05;;;3.90;;
6463;SDS011;3265;42.694;23.282;2023-08-31T10:59:45;5.82;;;4.35;;
6463;SDS011;3265;42.694;23.282;2023-08-31T11:02:29;6.60;;;4.22;;
6463;SDS011;3265;42.694;23.282;2023-08-31T11:05:01;10.07;;;4.82;;
6463;SDS011;3265;42.694;23.282;2023-08-31T11:07:39;6.72;;;4.03;;
6463;SDS011;3265;42.694;23.282;2023-08-31T11:10:08;13.52;;;8.38;;
6463;SDS011;3265;42.694;23.282;2023-08-31T11:12:36;5.93;;;4.15;;
6463;SDS011;3265;42.694;23.282;2023-08-31T11:15:05;6.95;;;4.40;;
6463;SDS011;3265;42.694;23.282;2023-08-31T11:17:32;10.73;;;4.30;;
6463;SDS011;3265;42.694;23.282;2023-08-31T11:19:59;10.13;;;4.40;;
6463;SDS011;3265;42.694;23.282;2023-08-31T11:22:30;7.28;;;4.10;;
6463;SDS011;3265;42.694;23.282;2023-08-31T11:24:58;5.18;;;3.53;;
6463;SDS011;3265;42.694;23.282;2023-08-31T11:27:25;5.45;;;4.07;;
6463;SDS011;3265;42.694;23.282;2023-08-31T11:29:52;9.20;;;4.25;;
6463;SDS011;3265;42.694;23.282;2023-08-31T11:32:22;7.72;;;4.10;;
6463;SDS011;3265;42.694;23.282;2023-08-31T11:34:49;7.78;;;3.72;;
6463;SDS011;3265;42.694;23.282;2023-08-31T11:37:18;6.05;;;3.75;;
6463;SDS011;3265;42.694;23.282;2023-08-31T11:39:48;8.88;;;3.65;;
6463;SDS011;3265;42.694;23.282;2023-08-31T11:42:17;4.97;;;3.30;;
6463;SDS011;3265;42.694;23.282;2023-08-31T11:44:50;5.20;;;3.60;;
6463;SDS011;3265;42.694;23.282;2023-08-31T11:47:23;6.22;;;3.78;;
6463;SDS011;3265;42.694;23.282;2023-08-31T11:49:51;6.40;;;3.70;;
6463;SDS011;3265;42.694;23.282;2023-08-31T11:52:18;6.18;;;3.33;;
6463;SDS011;3265;42.694;23.282;2023-08-31T11:54:45;8.63;;;3.78;;
6463;SDS011;3265;42.694;23.282;2023-08-31T11:57:18;6.80;;;3.58;;
6463;SDS011;3265;42.694;23.282;2023-08-31T11:59:44;5.85;;;3.88;;
6463;SDS011;3265;42.694;23.282;2023-08-31T12:02:11;5.25;;;3.22;;
6463;SDS011;3265;42.694;23.282;2023-08-31T12:04:43;7.82;;;3.53;;
6463;SDS011;3265;42.694;23.282;2023-08-31T12:07:17;7.28;;;3.50;;
6463;SDS011;3265;42.694;23.282;2023-08-31T12:10:04;9.35;;;3.85;;
6463;SDS011;3265;42.694;23.282;2023-08-31T12:12:39;6.60;;;3.60;;
6463;SDS011;3265;42.694;23.282;2023-08-31T12:15:06;4.78;;;3.35;;
6463;SDS011;3265;42.694;23.282;2023-08-31T12:17:36;5.25;;;3.30;;
6463;SDS011;3265;42.694;23.282;2023-08-31T12:20:06;8.00;;;3.33;;
6463;SDS011;3265;42.694;23.282;2023-08-31T12:22:35;4.50;;;3.47;;
6463;SDS011;3265;42.694;23.282;2023-08-31T12:25:02;5.78;;;3.50;;
6463;SDS011;3265;42.694;23.282;2023-08-31T12:27:29;5.57;;;3.42;;
6463;SDS011;3265;42.694;23.282;2023-08-31T12:29:56;5.80;;;3.33;;
6463;SDS011;3265;42.694;23.282;2023-08-31T12:32:23;9.52;;;3.67;;
6463;SDS011;3265;42.694;23.282;2023-08-31T12:34:50;6.95;;;3.25;;
6463;SDS011;3265;42.694;23.282;2023-08-31T12:37:18;7.82;;;3.50;;
6463;SDS011;3265;42.694;23.282;2023-08-31T12:39:45;6.55;;;3.08;;
6463;SDS011;3265;42.694;23.282;2023-08-31T12:42:12;5.72;;;3.25;;
6463;SDS011;3265;42.694;23.282;2023-08-31T12:44:38;5.50;;;2.97;;
6463;SDS011;3265;42.694;23.282;2023-08-31T12:47:06;7.10;;;3.67;;
6463;SDS011;3265;42.694;23.282;2023-08-31T12:49:33;5.25;;;3.20;;
6463;SDS011;3265;42.694;23.282;2023-08-31T12:52:00;7.10;;;3.33;;
6463;SDS011;3265;42.694;23.282;2023-08-31T12:54:29;6.13;;;3.70;;
6463;SDS011;3265;42.694;23.282;2023-08-31T12:56:56;4.97;;;3.33;;
6463;SDS011;3265;42.694;23.282;2023-08-31T12:59:23;6.07;;;3.38;;
6463;SDS011;3265;42.694;23.282;2023-08-31T13:01:50;6.47;;;3.30;;
6463;SDS011;3265;42.694;23.282;2023-08-31T13:04:17;5.20;;;3.30;;
6463;SDS011;3265;42.694;23.282;2023-08-31T13:06:44;5.82;;;3.03;;
6463;SDS011;3265;42.694;23.282;2023-08-31T13:09:11;6.05;;;3.35;;
6463;SDS011;3265;42.694;23.282;2023-08-31T13:11:39;9.13;;;3.00;;
6463;SDS011;3265;42.694;23.282;2023-08-31T13:14:06;7.18;;;3.25;;
6463;SDS011;3265;42.694;23.282;2023-08-31T13:16:33;9.45;;;3.47;;
6463;SDS011;3265;42.694;23.282;2023-08-31T13:19:02;8.35;;;3.10;;
6463;SDS011;3265;42.694;23.282;2023-08-31T13:21:29;8.07;;;3.13;;
6463;SDS011;3265;42.694;23.282;2023-08-31T13:23:59;4.90;;;2.90;;
6463;SDS011;3265;42.694;23.282;2023-08-31T13:26:26;5.32;;;2.83;;
6463;SDS011;3265;42.694;23.282;2023-08-31T13:28:54;5.47;;;3.05;;
6463;SDS011;3265;42.694;23.282;2023-08-31T13:31:21;6.38;;;3.17;;
6463;SDS011;3265;42.694;23.282;2023-08-31T13:33:48;5.97;;;2.95;;
6463;SDS011;3265;42.694;23.282;2023-08-31T13:36:15;8.10;;;3.17;;
6463;SDS011;3265;42.694;23.282;2023-08-31T13:38:54;6.15;;;3.00;;
6463;SDS011;3265;42.694;23.282;2023-08-31T13:41:28;5.95;;;2.95;;
6463;SDS011;3265;42.694;23.282;2023-08-31T13:44:01;4.75;;;3.08;;
6463;SDS011;3265;42.694;23.282;2023-08-31T13:46:30;4.75;;;3.00;;
6463;SDS011;3265;42.694;23.282;2023-08-31T13:48:57;13.15;;;3.08;;
6463;SDS011;3265;42.694;23.282;2023-08-31T13:51:24;7.45;;;3.22;;
6463;SDS011;3265;42.694;23.282;2023-08-31T13:53:51;6.45;;;3.10;;
6463;SDS011;3265;42.694;23.282;2023-08-31T13:56:26;7.20;;;3.40;;
6463;SDS011;3265;42.694;23.282;2023-08-31T13:58:53;5.70;;;3.20;;
6463;SDS011;3265;42.694;23.282;2023-08-31T14:01:22;8.77;;;3.75;;
6463;SDS011;3265;42.694;23.282;2023-08-31T14:03:49;7.30;;;3.20;;
6463;SDS011;3265;42.694;23.282;2023-08-31T14:06:15;7.63;;;3.30;;
6463;SDS011;3265;42.694;23.282;2023-08-31T14:11:48;7.85;;;3.45;;
6463;SDS011;3265;42.694;23.282;2023-08-31T14:14:16;7.10;;;3.13;;
6463;SDS011;3265;42.694;23.282;2023-08-31T14:16:45;8.05;;;3.55;;
6463;SDS011;3265;42.694;23.282;2023-08-31T14:19:12;7.55;;;3.00;;
6463;SDS011;3265;42.694;23.282;2023-08-31T14:21:45;7.30;;;3.17;;
6463;SDS011;3265;42.694;23.282;2023-08-31T14:24:18;6.30;;;2.95;;
6463;SDS011;3265;42.694;23.282;2023-08-31T14:26:45;6.90;;;3.42;;
6463;SDS011;3265;42.694;23.282;2023-08-31T14:29:13;6.55;;;3.28;;
6463;SDS011;3265;42.694;23.282;2023-08-31T14:31:40;6.50;;;3.28;;
6463;SDS011;3265;42.694;23.282;2023-08-31T14:34:09;8.25;;;3.42;;
6463;SDS011;3265;42.694;23.282;2023-08-31T14:36:36;8.48;;;3.13;;
6463;SDS011;3265;42.694;23.282;2023-08-31T14:39:03;8.50;;;3.28;;
6463;SDS011;3265;42.694;23.282;2023-08-31T14:41:30;7.25;;;3.17;;
6463;SDS011;3265;42.694;23.282;2023-08-31T14:43:57;9.82;;;3.70;;
6463;SDS011;3265;42.694;23.282;2023-08-31T14:46:25;6.85;;;3.33;;
6463;SDS011;3265;42.694;23.282;2023-08-31T14:48:52;5.22;;;3.25;;
6463;SDS011;3265;42.694;23.282;2023-08-31T14:51:21;4.82;;;3.30;;
6463;SDS011;3265;42.694;23.282;2023-08-31T14:53:48;6.20;;;3.53;;
6463;SDS011;3265;42.694;23.282;2023-08-31T14:56:16;5.50;;;3.22;;
6463;SDS011;3265;42.694;23.282;2023-08-31T14:58:45;10.45;;;3.70;;
6463;SDS011;3265;42.694;23.282;2023-08-31T15:01:12;6.95;;;3.65;;
6463;SDS011;3265;42.694;23.282;2023-08-31T15:03:39;6.65;;;3.53;;
6463;SDS011;3265;42.694;23.282;2023-08-31T15:06:06;9.02;;;3.10;;
6463;SDS011;3265;42.694;23.282;2023-08-31T15:08:38;17.50;;;3.50;;
6463;SDS011;3265;42.694;23.282;2023-08-31T15:11:06;9.32;;;3.53;;
6463;SDS011;3265;42.694;23.282;2023-08-31T15:13:34;12.35;;;3.58;;
6463;SDS011;3265;42.694;23.282;2023-08-31T15:16:04;8.20;;;3.75;;
6463;SDS011;3265;42.694;23.282;2023-08-31T15:18:31;5.05;;;3.08;;